sensor_id;sensor_type;location;lat;lon;timestamp;P1;durP1;ratioP1;P2;durP2;ratioP2
55589;SDS011;41452;42.780;23.116;2023-04-03T00:00:18;31.27;;;8.75;;
55589;SDS011;41452;42.780;23.116;2023-04-03T00:02:44;28.33;;;7.63;;
55589;SDS011;41452;42.780;23.116;2023-04-03T00:05:10;27.52;;;8.38;;
55589;SDS011;41452;42.780;23.116;2023-04-03T00:07:35;27.13;;;8.35;;
55589;SDS011;41452;42.780;23.116;2023-04-03T00:10:00;23.55;;;8.13;;
55589;SDS011;41452;42.780;23.116;2023-04-03T00:12:26;28.88;;;7.10;;
55589;SDS011;41452;42.780;23.116;2023-04-03T00:14:51;4.50;;;2.15;;
55589;SDS011;41452;42.780;23.116;2023-04-03T00:17:16;3.97;;;1.67;;
55589;SDS011;41452;42.780;23.116;2023-04-03T00:19:42;1.88;;;1.38;;
55589;SDS011;41452;42.780;23.116;2023-04-03T00:22:07;2.42;;;1.30;;
55589;SDS011;41452;42.780;23.116;2023-04-03T00:24:33;2.83;;;1.40;;
55589;SDS011;41452;42.780;23.116;2023-04-03T00:26:58;1.58;;;1.10;;
55589;SDS011;41452;42.780;23.116;2023-04-03T00:29:23;2.00;;;1.38;;
55589;SDS011;41452;42.780;23.116;2023-04-03T00:31:49;2.20;;;1.48;;
55589;SDS011;41452;42.780;23.116;2023-04-03T00:34:14;1.65;;;1.27;;
55589;SDS011;41452;42.780;23.116;2023-04-03T00:36:40;1.42;;;1.10;;
55589;SDS011;41452;42.780;23.116;2023-04-03T00:39:05;1.92;;;1.23;;
55589;SDS011;41452;42.780;23.116;2023-04-03T00:41:31;3.28;;;1.52;;
55589;SDS011;41452;42.780;23.116;2023-04-03T00:43:57;2.00;;;1.30;;
55589;SDS011;41452;42.780;23.116;2023-04-03T00:46:23;3.58;;;1.52;;
55589;SDS011;41452;42.780;23.116;2023-04-03T00:48:49;2.10;;;1.33;;
55589;SDS011;41452;42.780;23.116;2023-04-03T00:51:23;1.98;;;1.30;;
55589;SDS011;41452;42.780;23.116;2023-04-03T00:56:26;4.80;;;1.65;;
55589;SDS011;41452;42.780;23.116;2023-04-03T00:58:56;1.40;;;1.20;;
55589;SDS011;41452;42.780;23.116;2023-04-03T01:01:26;4.32;;;1.42;;
55589;SDS011;41452;42.780;23.116;2023-04-03T01:03:53;1.48;;;1.17;;
55589;SDS011;41452;42.780;23.116;2023-04-03T01:06:20;3.10;;;1.70;;
55589;SDS011;41452;42.780;23.116;2023-04-03T01:08:49;2.17;;;1.40;;
55589;SDS011;41452;42.780;23.116;2023-04-03T01:11:16;2.67;;;1.48;;
55589;SDS011;41452;42.780;23.116;2023-04-03T01:13:41;1.80;;;1.40;;
55589;SDS011;41452;42.780;23.116;2023-04-03T01:16:07;1.77;;;1.30;;
55589;SDS011;41452;42.780;23.116;2023-04-03T01:18:33;3.47;;;1.70;;
55589;SDS011;41452;42.780;23.116;2023-04-03T01:26:49;4.32;;;1.73;;
55589;SDS011;41452;42.780;23.116;2023-04-03T01:29:15;2.53;;;1.45;;
55589;SDS011;41452;42.780;23.116;2023-04-03T01:31:44;1.90;;;1.25;;
55589;SDS011;41452;42.780;23.116;2023-04-03T01:34:23;3.05;;;1.77;;
55589;SDS011;41452;42.780;23.116;2023-04-03T01:36:49;3.97;;;1.80;;
55589;SDS011;41452;42.780;23.116;2023-04-03T01:39:15;2.25;;;1.50;;
55589;SDS011;41452;42.780;23.116;2023-04-03T01:41:40;3.15;;;1.50;;
55589;SDS011;41452;42.780;23.116;2023-04-03T01:44:06;2.58;;;1.65;;
55589;SDS011;41452;42.780;23.116;2023-04-03T01:46:31;3.33;;;1.58;;
55589;SDS011;41452;42.780;23.116;2023-04-03T01:48:57;2.42;;;1.50;;
55589;SDS011;41452;42.780;23.116;2023-04-03T01:51:22;2.03;;;1.58;;
55589;SDS011;41452;42.780;23.116;2023-04-03T01:53:48;1.88;;;1.35;;
55589;SDS011;41452;42.780;23.116;2023-04-03T01:56:13;3.28;;;1.60;;
55589;SDS011;41452;42.780;23.116;2023-04-03T01:58:39;5.38;;;1.60;;
55589;SDS011;41452;42.780;23.116;2023-04-03T02:01:04;2.22;;;1.23;;
55589;SDS011;41452;42.780;23.116;2023-04-03T02:03:30;2.42;;;1.52;;
55589;SDS011;41452;42.780;23.116;2023-04-03T02:05:56;2.92;;;1.67;;
55589;SDS011;41452;42.780;23.116;2023-04-03T02:08:22;2.35;;;1.50;;
55589;SDS011;41452;42.780;23.116;2023-04-03T02:10:48;2.33;;;1.50;;
55589;SDS011;41452;42.780;23.116;2023-04-03T02:13:14;4.40;;;1.70;;
55589;SDS011;41452;42.780;23.116;2023-04-03T02:15:40;3.60;;;1.58;;
55589;SDS011;41452;42.780;23.116;2023-04-03T02:18:06;2.20;;;1.65;;
55589;SDS011;41452;42.780;23.116;2023-04-03T02:20:32;4.18;;;1.73;;
55589;SDS011;41452;42.780;23.116;2023-04-03T02:22:58;2.03;;;1.33;;
55589;SDS011;41452;42.780;23.116;2023-04-03T02:25:23;2.90;;;1.65;;
55589;SDS011;41452;42.780;23.116;2023-04-03T02:27:49;3.17;;;1.52;;
55589;SDS011;41452;42.780;23.116;2023-04-03T02:30:14;2.50;;;1.55;;
55589;SDS011;41452;42.780;23.116;2023-04-03T02:32:40;2.55;;;1.50;;
55589;SDS011;41452;42.780;23.116;2023-04-03T02:35:07;7.13;;;1.98;;
55589;SDS011;41452;42.780;23.116;2023-04-03T02:37:33;5.85;;;2.42;;
55589;SDS011;41452;42.780;23.116;2023-04-03T02:39:58;2.88;;;1.90;;
55589;SDS011;41452;42.780;23.116;2023-04-03T02:42:24;2.97;;;1.70;;
55589;SDS011;41452;42.780;23.116;2023-04-03T02:44:49;4.25;;;1.85;;
55589;SDS011;41452;42.780;23.116;2023-04-03T02:47:15;3.00;;;1.88;;
55589;SDS011;41452;42.780;23.116;2023-04-03T02:49:40;3.92;;;1.73;;
55589;SDS011;41452;42.780;23.116;2023-04-03T02:52:08;2.90;;;1.67;;
55589;SDS011;41452;42.780;23.116;2023-04-03T02:54:34;2.80;;;1.77;;
55589;SDS011;41452;42.780;23.116;2023-04-03T02:57:00;2.03;;;1.70;;
55589;SDS011;41452;42.780;23.116;2023-04-03T02:59:25;2.08;;;1.50;;
55589;SDS011;41452;42.780;23.116;2023-04-03T03:01:51;2.35;;;1.40;;
55589;SDS011;41452;42.780;23.116;2023-04-03T03:04:16;1.40;;;1.10;;
55589;SDS011;41452;42.780;23.116;2023-04-03T03:06:42;4.00;;;1.58;;
55589;SDS011;41452;42.780;23.116;2023-04-03T03:09:07;2.97;;;1.95;;
55589;SDS011;41452;42.780;23.116;2023-04-03T03:11:32;3.58;;;2.08;;
55589;SDS011;41452;42.780;23.116;2023-04-03T03:13:58;2.65;;;1.90;;
55589;SDS011;41452;42.780;23.116;2023-04-03T03:16:23;2.72;;;1.70;;
55589;SDS011;41452;42.780;23.116;2023-04-03T03:18:48;2.50;;;1.75;;
55589;SDS011;41452;42.780;23.116;2023-04-03T03:21:14;3.05;;;1.90;;
55589;SDS011;41452;42.780;23.116;2023-04-03T03:23:39;6.38;;;2.30;;
55589;SDS011;41452;42.780;23.116;2023-04-03T03:26:06;2.67;;;1.77;;
55589;SDS011;41452;42.780;23.116;2023-04-03T03:28:33;2.20;;;1.50;;
55589;SDS011;41452;42.780;23.116;2023-04-03T03:31:00;3.30;;;2.03;;
55589;SDS011;41452;42.780;23.116;2023-04-03T03:33:26;2.58;;;1.70;;
55589;SDS011;41452;42.780;23.116;2023-04-03T03:35:52;8.18;;;1.90;;
55589;SDS011;41452;42.780;23.116;2023-04-03T03:38:18;3.35;;;1.80;;
55589;SDS011;41452;42.780;23.116;2023-04-03T03:40:43;3.13;;;1.70;;
55589;SDS011;41452;42.780;23.116;2023-04-03T03:43:09;2.35;;;1.60;;
55589;SDS011;41452;42.780;23.116;2023-04-03T03:45:35;2.85;;;1.90;;
55589;SDS011;41452;42.780;23.116;2023-04-03T03:48:00;2.80;;;1.73;;
55589;SDS011;41452;42.780;23.116;2023-04-03T03:50:26;2.50;;;1.63;;
55589;SDS011;41452;42.780;23.116;2023-04-03T03:52:52;2.58;;;1.80;;
55589;SDS011;41452;42.780;23.116;2023-04-03T03:55:17;2.70;;;1.50;;
55589;SDS011;41452;42.780;23.116;2023-04-03T03:57:43;2.67;;;1.80;;
55589;SDS011;41452;42.780;23.116;2023-04-03T04:00:08;2.67;;;1.88;;
55589;SDS011;41452;42.780;23.116;2023-04-03T04:02:34;3.35;;;1.80;;
55589;SDS011;41452;42.780;23.116;2023-04-03T04:05:00;4.05;;;2.58;;
55589;SDS011;41452;42.780;23.116;2023-04-03T04:07:25;3.75;;;2.30;;
55589;SDS011;41452;42.780;23.116;2023-04-03T04:09:53;4.97;;;2.50;;
55589;SDS011;41452;42.780;23.116;2023-04-03T04:12:18;6.13;;;2.35;;
55589;SDS011;41452;42.780;23.116;2023-04-03T04:14:45;3.53;;;2.42;;
55589;SDS011;41452;42.780;23.116;2023-04-03T04:17:11;4.15;;;2.65;;
55589;SDS011;41452;42.780;23.116;2023-04-03T04:19:37;4.55;;;2.20;;
55589;SDS011;41452;42.780;23.116;2023-04-03T04:22:03;4.53;;;2.13;;
55589;SDS011;41452;42.780;23.116;2023-04-03T04:24:29;6.40;;;2.33;;
55589;SDS011;41452;42.780;23.116;2023-04-03T04:26:54;7.65;;;2.65;;
55589;SDS011;41452;42.780;23.116;2023-04-03T04:29:20;5.60;;;2.67;;
55589;SDS011;41452;42.780;23.116;2023-04-03T04:31:46;4.90;;;2.83;;
55589;SDS011;41452;42.780;23.116;2023-04-03T04:34:11;6.35;;;2.75;;
55589;SDS011;41452;42.780;23.116;2023-04-03T04:36:38;3.67;;;2.35;;
55589;SDS011;41452;42.780;23.116;2023-04-03T04:39:03;4.60;;;2.95;;
55589;SDS011;41452;42.780;23.116;2023-04-03T04:41:30;5.60;;;2.50;;
55589;SDS011;41452;42.780;23.116;2023-04-03T04:43:55;3.83;;;2.72;;
55589;SDS011;41452;42.780;23.116;2023-04-03T04:46:21;3.55;;;2.55;;
55589;SDS011;41452;42.780;23.116;2023-04-03T04:48:46;5.25;;;2.50;;
55589;SDS011;41452;42.780;23.116;2023-04-03T04:51:13;4.40;;;2.67;;
55589;SDS011;41452;42.780;23.116;2023-04-03T04:53:39;4.07;;;2.33;;
55589;SDS011;41452;42.780;23.116;2023-04-03T04:56:06;3.88;;;2.38;;
55589;SDS011;41452;42.780;23.116;2023-04-03T04:58:31;7.32;;;4.75;;
55589;SDS011;41452;42.780;23.116;2023-04-03T05:01:00;5.38;;;3.17;;
55589;SDS011;41452;42.780;23.116;2023-04-03T05:03:27;3.83;;;2.40;;
55589;SDS011;41452;42.780;23.116;2023-04-03T05:05:53;3.22;;;2.10;;
55589;SDS011;41452;42.780;23.116;2023-04-03T05:08:18;3.40;;;2.00;;
55589;SDS011;41452;42.780;23.116;2023-04-03T05:10:47;6.10;;;2.67;;
55589;SDS011;41452;42.780;23.116;2023-04-03T05:13:13;4.15;;;2.60;;
55589;SDS011;41452;42.780;23.116;2023-04-03T05:15:38;3.97;;;2.03;;
55589;SDS011;41452;42.780;23.116;2023-04-03T05:18:04;3.00;;;1.98;;
55589;SDS011;41452;42.780;23.116;2023-04-03T05:20:30;2.85;;;2.00;;
55589;SDS011;41452;42.780;23.116;2023-04-03T05:22:56;3.05;;;1.98;;
55589;SDS011;41452;42.780;23.116;2023-04-03T05:25:21;3.00;;;2.10;;
55589;SDS011;41452;42.780;23.116;2023-04-03T05:27:46;2.65;;;1.55;;
55589;SDS011;41452;42.780;23.116;2023-04-03T05:30:12;3.30;;;1.77;;
55589;SDS011;41452;42.780;23.116;2023-04-03T05:32:37;2.90;;;1.65;;
55589;SDS011;41452;42.780;23.116;2023-04-03T05:35:04;4.50;;;2.10;;
55589;SDS011;41452;42.780;23.116;2023-04-03T05:37:30;5.43;;;3.20;;
55589;SDS011;41452;42.780;23.116;2023-04-03T05:39:56;5.28;;;3.22;;
55589;SDS011;41452;42.780;23.116;2023-04-03T05:42:21;7.65;;;4.47;;
55589;SDS011;41452;42.780;23.116;2023-04-03T05:44:46;7.22;;;5.00;;
55589;SDS011;41452;42.780;23.116;2023-04-03T05:47:12;8.13;;;4.70;;
55589;SDS011;41452;42.780;23.116;2023-04-03T05:49:38;6.55;;;3.78;;
55589;SDS011;41452;42.780;23.116;2023-04-03T05:52:06;9.18;;;5.80;;
55589;SDS011;41452;42.780;23.116;2023-04-03T05:54:42;7.90;;;5.25;;
55589;SDS011;41452;42.780;23.116;2023-04-03T05:57:08;10.52;;;5.65;;
55589;SDS011;41452;42.780;23.116;2023-04-03T05:59:33;5.50;;;3.38;;
55589;SDS011;41452;42.780;23.116;2023-04-03T06:01:58;5.75;;;3.40;;
55589;SDS011;41452;42.780;23.116;2023-04-03T06:04:24;4.25;;;2.53;;
55589;SDS011;41452;42.780;23.116;2023-04-03T06:06:50;3.35;;;2.13;;
55589;SDS011;41452;42.780;23.116;2023-04-03T06:09:18;6.60;;;2.45;;
55589;SDS011;41452;42.780;23.116;2023-04-03T06:11:46;2.95;;;1.90;;
55589;SDS011;41452;42.780;23.116;2023-04-03T06:14:11;3.72;;;2.28;;
55589;SDS011;41452;42.780;23.116;2023-04-03T06:16:37;3.95;;;2.50;;
55589;SDS011;41452;42.780;23.116;2023-04-03T06:19:03;4.68;;;2.47;;
55589;SDS011;41452;42.780;23.116;2023-04-03T06:21:29;4.13;;;2.13;;
55589;SDS011;41452;42.780;23.116;2023-04-03T06:23:55;3.88;;;2.63;;
55589;SDS011;41452;42.780;23.116;2023-04-03T06:26:20;3.13;;;2.30;;
55589;SDS011;41452;42.780;23.116;2023-04-03T06:28:46;4.07;;;2.65;;
55589;SDS011;41452;42.780;23.116;2023-04-03T06:31:11;5.40;;;2.65;;
55589;SDS011;41452;42.780;23.116;2023-04-03T06:33:36;3.33;;;2.35;;
55589;SDS011;41452;42.780;23.116;2023-04-03T06:36:03;4.55;;;2.30;;
55589;SDS011;41452;42.780;23.116;2023-04-03T06:38:30;6.70;;;2.60;;
55589;SDS011;41452;42.780;23.116;2023-04-03T06:40:56;4.75;;;2.70;;
55589;SDS011;41452;42.780;23.116;2023-04-03T06:43:21;5.80;;;3.03;;
55589;SDS011;41452;42.780;23.116;2023-04-03T06:45:47;5.22;;;2.72;;
55589;SDS011;41452;42.780;23.116;2023-04-03T06:48:13;5.10;;;2.60;;
55589;SDS011;41452;42.780;23.116;2023-04-03T06:50:38;4.35;;;2.70;;
55589;SDS011;41452;42.780;23.116;2023-04-03T06:53:04;3.13;;;2.28;;
55589;SDS011;41452;42.780;23.116;2023-04-03T06:55:29;5.53;;;2.90;;
55589;SDS011;41452;42.780;23.116;2023-04-03T06:57:55;3.88;;;2.63;;
55589;SDS011;41452;42.780;23.116;2023-04-03T07:00:21;3.65;;;2.63;;
55589;SDS011;41452;42.780;23.116;2023-04-03T07:02:46;5.55;;;2.72;;
55589;SDS011;41452;42.780;23.116;2023-04-03T07:05:11;3.70;;;2.50;;
55589;SDS011;41452;42.780;23.116;2023-04-03T07:07:38;4.50;;;2.40;;
55589;SDS011;41452;42.780;23.116;2023-04-03T07:10:05;4.55;;;3.17;;
55589;SDS011;41452;42.780;23.116;2023-04-03T07:12:32;6.82;;;3.17;;
55589;SDS011;41452;42.780;23.116;2023-04-03T07:14:58;13.90;;;6.28;;
55589;SDS011;41452;42.780;23.116;2023-04-03T07:17:23;5.38;;;3.00;;
55589;SDS011;41452;42.780;23.116;2023-04-03T07:19:48;4.45;;;3.00;;
55589;SDS011;41452;42.780;23.116;2023-04-03T07:22:14;4.75;;;3.03;;
55589;SDS011;41452;42.780;23.116;2023-04-03T07:24:39;2.78;;;2.13;;
55589;SDS011;41452;42.780;23.116;2023-04-03T07:27:05;5.70;;;2.63;;
55589;SDS011;41452;42.780;23.116;2023-04-03T07:29:30;4.47;;;2.60;;
55589;SDS011;41452;42.780;23.116;2023-04-03T07:31:56;7.22;;;2.80;;
55589;SDS011;41452;42.780;23.116;2023-04-03T07:34:22;6.53;;;2.60;;
55589;SDS011;41452;42.780;23.116;2023-04-03T07:36:47;4.15;;;2.47;;
55589;SDS011;41452;42.780;23.116;2023-04-03T07:39:13;4.07;;;2.50;;
55589;SDS011;41452;42.780;23.116;2023-04-03T07:41:38;12.10;;;7.43;;
55589;SDS011;41452;42.780;23.116;2023-04-03T07:44:04;8.40;;;3.88;;
55589;SDS011;41452;42.780;23.116;2023-04-03T07:46:30;14.93;;;9.73;;
55589;SDS011;41452;42.780;23.116;2023-04-03T07:48:56;16.92;;;4.80;;
55589;SDS011;41452;42.780;23.116;2023-04-03T07:51:21;5.07;;;2.90;;
55589;SDS011;41452;42.780;23.116;2023-04-03T07:53:46;3.78;;;2.47;;
55589;SDS011;41452;42.780;23.116;2023-04-03T07:56:12;6.53;;;3.08;;
55589;SDS011;41452;42.780;23.116;2023-04-03T07:58:37;4.72;;;3.22;;
55589;SDS011;41452;42.780;23.116;2023-04-03T08:01:03;3.35;;;2.15;;
55589;SDS011;41452;42.780;23.116;2023-04-03T08:03:29;4.55;;;2.25;;
55589;SDS011;41452;42.780;23.116;2023-04-03T08:05:54;4.18;;;2.75;;
55589;SDS011;41452;42.780;23.116;2023-04-03T08:08:22;4.20;;;2.50;;
55589;SDS011;41452;42.780;23.116;2023-04-03T08:10:49;3.55;;;2.35;;
55589;SDS011;41452;42.780;23.116;2023-04-03T08:13:18;3.33;;;2.10;;
55589;SDS011;41452;42.780;23.116;2023-04-03T08:15:44;5.43;;;2.30;;
55589;SDS011;41452;42.780;23.116;2023-04-03T08:18:10;4.15;;;2.67;;
55589;SDS011;41452;42.780;23.116;2023-04-03T08:20:37;4.75;;;2.70;;
55589;SDS011;41452;42.780;23.116;2023-04-03T08:23:03;15.50;;;3.60;;
55589;SDS011;41452;42.780;23.116;2023-04-03T08:25:28;9.15;;;4.63;;
55589;SDS011;41452;42.780;23.116;2023-04-03T08:27:54;4.53;;;2.30;;
55589;SDS011;41452;42.780;23.116;2023-04-03T08:30:20;5.60;;;3.30;;
55589;SDS011;41452;42.780;23.116;2023-04-03T08:32:45;7.28;;;4.53;;
55589;SDS011;41452;42.780;23.116;2023-04-03T08:35:10;7.95;;;2.70;;
55589;SDS011;41452;42.780;23.116;2023-04-03T08:37:37;4.00;;;2.78;;
55589;SDS011;41452;42.780;23.116;2023-04-03T08:40:04;4.68;;;2.55;;
55589;SDS011;41452;42.780;23.116;2023-04-03T08:45:13;2.90;;;2.25;;
55589;SDS011;41452;42.780;23.116;2023-04-03T08:50:22;6.80;;;2.42;;
55589;SDS011;41452;42.780;23.116;2023-04-03T08:52:58;5.10;;;2.40;;
55589;SDS011;41452;42.780;23.116;2023-04-03T08:55:27;4.28;;;2.67;;
55589;SDS011;41452;42.780;23.116;2023-04-03T08:58:06;4.22;;;2.45;;
55589;SDS011;41452;42.780;23.116;2023-04-03T09:01:06;5.55;;;3.50;;
55589;SDS011;41452;42.780;23.116;2023-04-03T09:03:40;5.03;;;2.88;;
55589;SDS011;41452;42.780;23.116;2023-04-03T09:06:21;5.05;;;2.33;;
55589;SDS011;41452;42.780;23.116;2023-04-03T09:11:51;6.15;;;2.28;;
55589;SDS011;41452;42.780;23.116;2023-04-03T09:22:42;6.97;;;2.70;;
55589;SDS011;41452;42.780;23.116;2023-04-03T09:27:46;3.10;;;2.05;;
55589;SDS011;41452;42.780;23.116;2023-04-03T09:30:15;4.43;;;2.83;;
55589;SDS011;41452;42.780;23.116;2023-04-03T09:32:49;3.15;;;2.33;;
55589;SDS011;41452;42.780;23.116;2023-04-03T09:37:44;7.45;;;3.13;;
55589;SDS011;41452;42.780;23.116;2023-04-03T09:42:58;5.45;;;3.80;;
55589;SDS011;41452;42.780;23.116;2023-04-03T09:45:32;11.25;;;3.85;;
55589;SDS011;41452;42.780;23.116;2023-04-03T09:50:32;11.38;;;4.00;;
55589;SDS011;41452;42.780;23.116;2023-04-03T09:52:59;5.55;;;3.28;;
55589;SDS011;41452;42.780;23.116;2023-04-03T09:55:30;4.75;;;3.13;;
55589;SDS011;41452;42.780;23.116;2023-04-03T09:58:00;6.75;;;3.40;;
55589;SDS011;41452;42.780;23.116;2023-04-03T10:00:30;6.35;;;3.55;;
55589;SDS011;41452;42.780;23.116;2023-04-03T10:02:58;7.05;;;3.40;;
55589;SDS011;41452;42.780;23.116;2023-04-03T10:05:40;6.55;;;3.88;;
55589;SDS011;41452;42.780;23.116;2023-04-03T10:10:38;6.57;;;3.70;;
55589;SDS011;41452;42.780;23.116;2023-04-03T10:13:23;5.47;;;3.85;;
55589;SDS011;41452;42.780;23.116;2023-04-03T10:21:06;10.50;;;4.47;;
55589;SDS011;41452;42.780;23.116;2023-04-03T10:24:03;10.00;;;4.53;;
55589;SDS011;41452;42.780;23.116;2023-04-03T10:27:25;7.07;;;4.10;;
55589;SDS011;41452;42.780;23.116;2023-04-03T10:29:57;7.50;;;4.05;;
55589;SDS011;41452;42.780;23.116;2023-04-03T10:32:45;8.63;;;3.28;;
55589;SDS011;41452;42.780;23.116;2023-04-03T10:40:43;6.07;;;4.05;;
55589;SDS011;41452;42.780;23.116;2023-04-03T10:54:24;6.15;;;3.35;;
55589;SDS011;41452;42.780;23.116;2023-04-03T10:57:04;6.80;;;3.50;;
55589;SDS011;41452;42.780;23.116;2023-04-03T10:59:35;6.63;;;3.70;;
55589;SDS011;41452;42.780;23.116;2023-04-03T11:05:05;7.88;;;3.60;;
55589;SDS011;41452;42.780;23.116;2023-04-03T11:07:42;7.85;;;3.72;;
55589;SDS011;41452;42.780;23.116;2023-04-03T11:10:14;5.40;;;3.30;;
55589;SDS011;41452;42.780;23.116;2023-04-03T11:12:58;4.80;;;2.92;;
55589;SDS011;41452;42.780;23.116;2023-04-03T11:15:32;5.53;;;2.78;;
55589;SDS011;41452;42.780;23.116;2023-04-03T11:17:59;7.63;;;2.80;;
55589;SDS011;41452;42.780;23.116;2023-04-03T11:20:34;6.95;;;2.72;;
55589;SDS011;41452;42.780;23.116;2023-04-03T11:23:03;5.40;;;3.35;;
55589;SDS011;41452;42.780;23.116;2023-04-03T11:25:46;6.22;;;3.60;;
55589;SDS011;41452;42.780;23.116;2023-04-03T11:28:17;7.22;;;3.17;;
55589;SDS011;41452;42.780;23.116;2023-04-03T11:30:47;10.13;;;3.22;;
55589;SDS011;41452;42.780;23.116;2023-04-03T11:36:08;6.50;;;2.33;;
55589;SDS011;41452;42.780;23.116;2023-04-03T11:38:43;8.13;;;2.70;;
55589;SDS011;41452;42.780;23.116;2023-04-03T11:41:10;5.13;;;2.53;;
55589;SDS011;41452;42.780;23.116;2023-04-03T11:43:41;3.28;;;2.17;;
55589;SDS011;41452;42.780;23.116;2023-04-03T11:46:20;7.60;;;2.80;;
55589;SDS011;41452;42.780;23.116;2023-04-03T11:48:47;7.35;;;2.58;;
55589;SDS011;41452;42.780;23.116;2023-04-03T11:53:43;5.32;;;3.28;;
55589;SDS011;41452;42.780;23.116;2023-04-03T12:04:13;7.40;;;3.55;;
55589;SDS011;41452;42.780;23.116;2023-04-03T12:11:52;5.68;;;3.10;;
55589;SDS011;41452;42.780;23.116;2023-04-03T12:14:20;7.93;;;3.10;;
55589;SDS011;41452;42.780;23.116;2023-04-03T12:16:50;4.70;;;2.80;;
55589;SDS011;41452;42.780;23.116;2023-04-03T12:40:16;5.82;;;3.28;;
55589;SDS011;41452;42.780;23.116;2023-04-03T12:43:01;5.35;;;3.17;;
55589;SDS011;41452;42.780;23.116;2023-04-03T12:45:52;5.18;;;3.20;;
55589;SDS011;41452;42.780;23.116;2023-04-03T12:48:26;4.80;;;2.67;;
55589;SDS011;41452;42.780;23.116;2023-04-03T12:50:54;5.30;;;3.42;;
55589;SDS011;41452;42.780;23.116;2023-04-03T12:53:25;4.63;;;3.10;;
55589;SDS011;41452;42.780;23.116;2023-04-03T12:55:55;4.60;;;3.03;;
55589;SDS011;41452;42.780;23.116;2023-04-03T12:58:23;7.38;;;3.85;;
55589;SDS011;41452;42.780;23.116;2023-04-03T13:01:03;7.50;;;3.83;;
55589;SDS011;41452;42.780;23.116;2023-04-03T13:06:04;7.10;;;4.82;;
55589;SDS011;41452;42.780;23.116;2023-04-03T13:08:30;8.68;;;5.80;;
55589;SDS011;41452;42.780;23.116;2023-04-03T13:11:04;10.73;;;5.95;;
55589;SDS011;41452;42.780;23.116;2023-04-03T13:13:34;8.68;;;5.82;;
55589;SDS011;41452;42.780;23.116;2023-04-03T13:16:07;13.13;;;5.25;;
55589;SDS011;41452;42.780;23.116;2023-04-03T13:18:37;9.73;;;5.28;;
55589;SDS011;41452;42.780;23.116;2023-04-03T13:21:22;7.95;;;4.78;;
55589;SDS011;41452;42.780;23.116;2023-04-03T13:23:52;8.93;;;4.57;;
55589;SDS011;41452;42.780;23.116;2023-04-03T13:26:21;6.88;;;4.72;;
55589;SDS011;41452;42.780;23.116;2023-04-03T13:28:49;9.93;;;5.30;;
55589;SDS011;41452;42.780;23.116;2023-04-03T13:36:40;11.95;;;5.10;;
55589;SDS011;41452;42.780;23.116;2023-04-03T13:41:47;9.13;;;4.03;;
55589;SDS011;41452;42.780;23.116;2023-04-03T13:46:45;4.65;;;2.92;;
55589;SDS011;41452;42.780;23.116;2023-04-03T13:49:20;8.88;;;3.47;;
55589;SDS011;41452;42.780;23.116;2023-04-03T13:51:48;5.40;;;2.75;;
55589;SDS011;41452;42.780;23.116;2023-04-03T13:54:22;4.80;;;2.72;;
55589;SDS011;41452;42.780;23.116;2023-04-03T13:56:57;4.78;;;2.88;;
55589;SDS011;41452;42.780;23.116;2023-04-03T13:59:27;3.50;;;2.67;;
55589;SDS011;41452;42.780;23.116;2023-04-03T14:05:10;3.92;;;2.28;;
55589;SDS011;41452;42.780;23.116;2023-04-03T14:07:25;5.03;;;3.08;;
55589;SDS011;41452;42.780;23.116;2023-04-03T14:09:51;6.43;;;3.45;;
55589;SDS011;41452;42.780;23.116;2023-04-03T14:12:18;7.53;;;2.70;;
55589;SDS011;41452;42.780;23.116;2023-04-03T14:14:53;5.07;;;3.28;;
55589;SDS011;41452;42.780;23.116;2023-04-03T14:17:20;5.25;;;3.15;;
55589;SDS011;41452;42.780;23.116;2023-04-03T14:19:48;7.40;;;3.60;;
55589;SDS011;41452;42.780;23.116;2023-04-03T14:22:20;5.22;;;3.72;;
55589;SDS011;41452;42.780;23.116;2023-04-03T14:24:48;6.47;;;3.42;;
55589;SDS011;41452;42.780;23.116;2023-04-03T14:27:21;5.75;;;3.97;;
55589;SDS011;41452;42.780;23.116;2023-04-03T14:29:49;5.65;;;3.53;;
55589;SDS011;41452;42.780;23.116;2023-04-03T14:32:16;9.23;;;3.25;;
55589;SDS011;41452;42.780;23.116;2023-04-03T14:34:44;7.63;;;3.70;;
55589;SDS011;41452;42.780;23.116;2023-04-03T14:37:11;6.13;;;3.60;;
55589;SDS011;41452;42.780;23.116;2023-04-03T14:39:58;6.30;;;3.17;;
55589;SDS011;41452;42.780;23.116;2023-04-03T14:42:26;6.68;;;3.80;;
55589;SDS011;41452;42.780;23.116;2023-04-03T14:44:54;6.32;;;4.05;;
55589;SDS011;41452;42.780;23.116;2023-04-03T14:47:20;10.50;;;4.63;;
55589;SDS011;41452;42.780;23.116;2023-04-03T14:49:48;11.38;;;6.70;;
55589;SDS011;41452;42.780;23.116;2023-04-03T14:52:23;7.30;;;4.53;;
55589;SDS011;41452;42.780;23.116;2023-04-03T14:54:51;8.93;;;4.45;;
55589;SDS011;41452;42.780;23.116;2023-04-03T14:57:18;10.18;;;4.47;;
55589;SDS011;41452;42.780;23.116;2023-04-03T14:59:44;8.85;;;4.85;;
55589;SDS011;41452;42.780;23.116;2023-04-03T15:02:27;6.13;;;4.10;;
55589;SDS011;41452;42.780;23.116;2023-04-03T15:04:54;23.13;;;11.65;;
55589;SDS011;41452;42.780;23.116;2023-04-03T15:07:20;79.57;;;40.25;;
55589;SDS011;41452;42.780;23.116;2023-04-03T15:09:46;14.93;;;8.80;;
55589;SDS011;41452;42.780;23.116;2023-04-03T15:12:11;18.65;;;11.57;;
55589;SDS011;41452;42.780;23.116;2023-04-03T15:14:37;12.95;;;8.48;;
55589;SDS011;41452;42.780;23.116;2023-04-03T15:17:06;9.88;;;6.53;;
55589;SDS011;41452;42.780;23.116;2023-04-03T15:19:36;27.55;;;14.10;;
55589;SDS011;41452;42.780;23.116;2023-04-03T15:22:03;12.48;;;6.40;;
55589;SDS011;41452;42.780;23.116;2023-04-03T15:24:29;10.57;;;6.13;;
55589;SDS011;41452;42.780;23.116;2023-04-03T15:26:54;13.20;;;9.30;;
55589;SDS011;41452;42.780;23.116;2023-04-03T15:29:20;15.13;;;7.75;;
55589;SDS011;41452;42.780;23.116;2023-04-03T15:31:45;11.60;;;7.90;;
55589;SDS011;41452;42.780;23.116;2023-04-03T15:34:11;11.02;;;7.10;;
55589;SDS011;41452;42.780;23.116;2023-04-03T15:36:36;12.95;;;9.07;;
55589;SDS011;41452;42.780;23.116;2023-04-03T15:39:01;13.68;;;8.38;;
55589;SDS011;41452;42.780;23.116;2023-04-03T15:41:27;14.63;;;9.32;;
55589;SDS011;41452;42.780;23.116;2023-04-03T15:43:52;16.30;;;9.88;;
55589;SDS011;41452;42.780;23.116;2023-04-03T15:46:18;14.98;;;8.20;;
55589;SDS011;41452;42.780;23.116;2023-04-03T15:48:43;9.18;;;6.05;;
55589;SDS011;41452;42.780;23.116;2023-04-03T15:51:09;9.90;;;6.70;;
55589;SDS011;41452;42.780;23.116;2023-04-03T15:53:35;12.68;;;7.22;;
55589;SDS011;41452;42.780;23.116;2023-04-03T15:56:00;10.38;;;6.97;;
55589;SDS011;41452;42.780;23.116;2023-04-03T15:58:26;10.77;;;6.40;;
55589;SDS011;41452;42.780;23.116;2023-04-03T16:00:51;47.90;;;18.98;;
55589;SDS011;41452;42.780;23.116;2023-04-03T16:03:18;38.95;;;21.17;;
55589;SDS011;41452;42.780;23.116;2023-04-03T16:05:45;24.80;;;13.68;;
55589;SDS011;41452;42.780;23.116;2023-04-03T16:08:11;24.90;;;14.10;;
55589;SDS011;41452;42.780;23.116;2023-04-03T16:10:39;15.13;;;10.32;;
55589;SDS011;41452;42.780;23.116;2023-04-03T16:13:05;16.08;;;10.35;;
55589;SDS011;41452;42.780;23.116;2023-04-03T16:15:31;14.88;;;8.20;;
55589;SDS011;41452;42.780;23.116;2023-04-03T16:17:59;16.63;;;9.13;;
55589;SDS011;41452;42.780;23.116;2023-04-03T16:20:25;13.77;;;9.32;;
55589;SDS011;41452;42.780;23.116;2023-04-03T16:22:51;23.95;;;13.63;;
55589;SDS011;41452;42.780;23.116;2023-04-03T16:25:17;33.60;;;17.13;;
55589;SDS011;41452;42.780;23.116;2023-04-03T16:27:42;26.83;;;16.67;;
55589;SDS011;41452;42.780;23.116;2023-04-03T16:30:08;14.43;;;8.93;;
55589;SDS011;41452;42.780;23.116;2023-04-03T16:32:34;27.63;;;15.57;;